createdAt,value
2022-08-17T00:00:44.163Z,69.75
2022-08-17T00:03:42.700Z,69.95
2022-08-17T00:06:49.026Z,70.04
2022-08-17T00:09:51.314Z,70.20
2022-08-17T00:12:53.258Z,70.11
2022-08-17T00:15:59.409Z,69.88
2022-08-17T00:19:08.435Z,69.52
2022-08-17T00:22:34.207Z,69.34
2022-08-17T00:25:32.665Z,69.55
2022-08-17T00:28:34.296Z,69.96
2022-08-17T00:31:36.761Z,70.07
2022-08-17T00:34:39.854Z,70.31
2022-08-17T00:37:41.578Z,70.59
2022-08-17T00:40:45.443Z,70.39
2022-08-17T00:43:50.659Z,70.28
2022-08-17T00:46:52.713Z,70.67
2022-08-17T00:49:55.917Z,70.74
2022-08-17T00:52:58.893Z,71.25
2022-08-17T00:56:01.911Z,71.25
2022-08-17T00:59:05.336Z,71.57
2022-08-17T01:02:09.248Z,71.66
2022-08-17T01:05:20.002Z,71.93
2022-08-17T01:08:24.851Z,72.00
2022-08-17T01:11:26.880Z,71.97
2022-08-17T01:14:28.894Z,71.42
2022-08-17T01:17:30.587Z,70.99
2022-08-17T01:20:48.324Z,70.81
2022-08-17T01:24:01.845Z,70.46
2022-08-17T01:27:04.104Z,69.91
2022-08-17T01:30:57.027Z,69.79
2022-08-17T01:33:35.216Z,69.95
2022-08-17T01:36:38.531Z,70.14
2022-08-17T01:39:45.710Z,70.44
2022-08-17T01:42:49.932Z,70.45
2022-08-17T01:46:03.294Z,70.92
2022-08-17T01:49:06.605Z,71.20
2022-08-17T01:52:09.801Z,71.33
2022-08-17T01:55:15.668Z,71.59
2022-08-17T01:58:17.643Z,71.91
2022-08-17T02:01:21.194Z,71.92
2022-08-17T02:04:23.467Z,72.21
2022-08-17T02:07:26.965Z,72.25
2022-08-17T02:10:34.221Z,72.21
2022-08-17T02:13:36.021Z,72.14
2022-08-17T02:16:38.531Z,72.13
2022-08-17T02:19:40.526Z,72.07
2022-08-17T02:22:43.728Z,72.33
2022-08-17T02:25:50.270Z,72.51
2022-08-17T02:28:51.814Z,72.71
2022-08-17T02:31:56.826Z,72.79
2022-08-17T02:34:59.736Z,73.04
2022-08-17T02:38:01.830Z,73.10
2022-08-17T02:41:05.299Z,73.66
2022-08-17T02:44:07.525Z,73.58
2022-08-17T02:47:10.156Z,73.52
2022-08-17T02:50:14.210Z,73.56
2022-08-17T02:53:16.121Z,73.82
2022-08-17T02:56:19.044Z,73.71
2022-08-17T02:59:20.715Z,73.70
2022-08-17T03:02:22.515Z,73.57
2022-08-17T03:05:26.099Z,73.56
2022-08-17T03:08:27.949Z,73.23
2022-08-17T03:11:31.414Z,72.98
2022-08-17T03:14:34.002Z,73.06
2022-08-17T03:17:38.006Z,73.40
2022-08-17T03:20:41.938Z,74.08
2022-08-17T03:23:43.465Z,74.50
2022-08-17T03:26:46.665Z,74.53
2022-08-17T03:29:48.537Z,74.47
2022-08-17T03:32:51.726Z,74.19
2022-08-17T03:35:53.673Z,74.37
2022-08-17T03:38:55.429Z,74.35
2022-08-17T03:42:02.644Z,74.52
2022-08-17T03:45:05.556Z,74.55
2022-08-17T03:48:25.876Z,74.68
2022-08-17T03:51:53.422Z,74.94
2022-08-17T03:55:13.443Z,74.98
2022-08-17T03:58:16.669Z,75.05
2022-08-17T04:01:18.460Z,75.14
2022-08-17T04:04:20.413Z,75.27
2022-08-17T04:07:30.584Z,75.34
2022-08-17T04:10:32.977Z,75.51
2022-08-17T04:13:41.487Z,75.59
2022-08-17T04:16:43.162Z,75.41
2022-08-17T04:19:44.936Z,75.45
2022-08-17T04:22:56.636Z,75.03
2022-08-17T04:25:58.740Z,75.03
2022-08-17T04:29:02.005Z,75.17
2022-08-17T04:32:04.357Z,75.55
2022-08-17T04:35:06.228Z,75.80
2022-08-17T04:38:08.831Z,75.78
2022-08-17T04:41:29.935Z,75.78
2022-08-17T04:44:37.510Z,75.54
2022-08-17T04:47:39.575Z,75.71
2022-08-17T04:50:43.402Z,75.69
2022-08-17T04:53:54.062Z,75.53
2022-08-17T04:56:56.454Z,74.99
2022-08-17T04:59:59.408Z,74.66
2022-08-17T05:03:01.400Z,75.05
2022-08-17T05:06:03.376Z,74.78
2022-08-17T05:09:05.142Z,75.04
2022-08-17T05:12:07.146Z,75.28
2022-08-17T05:15:12.909Z,75.28
2022-08-17T05:18:15.410Z,76.03
2022-08-17T05:21:17.317Z,76.61
2022-08-17T05:24:40.765Z,76.42
2022-08-17T05:27:41.267Z,76.32
2022-08-17T05:30:46.329Z,77.04
2022-08-17T05:33:55.401Z,76.24
2022-08-17T05:36:57.125Z,76.00
2022-08-17T05:39:58.900Z,75.56
2022-08-17T05:43:04.703Z,75.93
2022-08-17T05:46:08.319Z,76.05
2022-08-17T05:49:18.784Z,75.89
2022-08-17T05:52:26.932Z,76.11
2022-08-17T05:55:33.261Z,76.18
2022-08-17T05:58:42.444Z,76.35
2022-08-17T06:01:49.711Z,76.53
2022-08-17T06:05:02.945Z,76.70
2022-08-17T06:08:12.413Z,76.56
2022-08-17T06:11:20.458Z,76.07
2022-08-17T06:14:44.457Z,75.95
2022-08-17T06:17:47.599Z,75.47
2022-08-17T06:20:51.311Z,75.22
2022-08-17T06:23:56.990Z,75.56
2022-08-17T06:27:06.617Z,76.09
2022-08-17T06:30:11.417Z,75.36
2022-08-17T06:33:18.983Z,74.96
2022-08-17T06:36:40.283Z,74.68
2022-08-17T06:39:49.907Z,74.37
2022-08-17T06:43:05.396Z,73.74
2022-08-17T06:46:11.787Z,73.93
2022-08-17T06:49:18.161Z,73.66
2022-08-17T06:52:45.650Z,72.95
2022-08-17T06:56:05.289Z,72.63
2022-08-17T06:59:10.210Z,71.98
2022-08-17T07:02:15.244Z,71.95
2022-08-17T07:05:20.859Z,71.75
2022-08-17T07:08:35.357Z,71.71
2022-08-17T07:11:40.459Z,71.48
2022-08-17T07:14:45.820Z,71.16
2022-08-17T07:17:48.488Z,71.88
2022-08-17T07:20:54.170Z,71.14
2022-08-17T07:24:02.647Z,70.81
2022-08-17T07:27:06.499Z,70.95
2022-08-17T07:30:10.957Z,70.88
2022-08-17T07:33:14.020Z,70.44
2022-08-17T07:36:29.659Z,69.85
2022-08-17T07:39:35.351Z,68.90
2022-08-17T07:43:06.097Z,68.18
2022-08-17T07:46:34.718Z,67.97
2022-08-17T07:49:37.989Z,67.68
2022-08-17T07:52:51.742Z,67.12
2022-08-17T07:55:54.213Z,67.64
2022-08-17T07:59:05.554Z,67.57
2022-08-17T08:02:24.178Z,67.29
2022-08-17T08:05:50.657Z,68.02
2022-08-17T08:08:55.081Z,68.00
2022-08-17T08:11:56.743Z,66.85
2022-08-17T08:14:59.141Z,66.05
2022-08-17T08:18:03.093Z,66.12
2022-08-17T08:21:12.950Z,65.72
2022-08-17T08:24:34.815Z,65.66
2022-08-17T08:27:43.837Z,65.27
2022-08-17T08:30:48.576Z,64.55
2022-08-17T08:33:56.240Z,64.57
2022-08-17T08:37:17.560Z,65.15
2022-08-17T08:40:33.378Z,64.65
2022-08-17T08:43:38.913Z,65.15
2022-08-17T08:46:46.233Z,64.77
2022-08-17T08:50:05.364Z,63.36
2022-08-17T08:53:14.440Z,63.80
2022-08-17T08:56:22.681Z,62.99
2022-08-17T08:59:29.460Z,62.59
2022-08-17T09:02:41.037Z,61.38
2022-08-17T09:05:53.593Z,60.27
2022-08-17T09:09:02.025Z,60.06
2022-08-17T09:12:10.100Z,60.13
2022-08-17T09:15:18.180Z,60.26
2022-08-17T09:19:00.203Z,59.71
2022-08-17T09:21:48.152Z,60.02
2022-08-17T09:24:57.253Z,58.97
2022-08-17T09:28:03.697Z,58.44
2022-08-17T09:31:08.374Z,58.52
2022-08-17T09:34:12.192Z,58.46
2022-08-17T09:37:19.237Z,58.85
2022-08-17T09:40:24.519Z,58.40
2022-08-17T09:43:31.820Z,59.58
2022-08-17T09:46:36.066Z,58.72
2022-08-17T09:49:46.935Z,58.16
2022-08-17T09:52:49.587Z,57.77
2022-08-17T09:56:00.113Z,57.57
2022-08-17T09:59:17.365Z,56.67
2022-08-17T10:02:40.626Z,55.96
2022-08-17T10:05:46.930Z,55.83
2022-08-17T10:08:57.675Z,56.35
2022-08-17T10:12:22.889Z,56.64
2022-08-17T10:15:38.180Z,56.60
2022-08-17T10:18:44.393Z,56.05
2022-08-17T10:22:32.730Z,56.32
2022-08-17T10:25:55.229Z,56.51
2022-08-17T10:29:00.571Z,55.80
2022-08-17T10:32:10.906Z,56.06
2022-08-17T10:35:22.521Z,56.02
2022-08-17T10:38:32.578Z,56.17
2022-08-17T10:41:40.862Z,55.76
2022-08-17T10:44:47.190Z,55.55
2022-08-17T10:48:04.670Z,56.03
2022-08-17T10:51:12.555Z,55.36
2022-08-17T10:54:29.275Z,54.68
2022-08-17T10:57:42.655Z,54.39
2022-08-17T11:01:02.558Z,52.59
2022-08-17T11:04:07.918Z,51.77
2022-08-17T11:07:14.795Z,51.30
2022-08-17T11:10:34.340Z,50.61
2022-08-17T11:13:44.905Z,50.16
2022-08-17T11:16:53.403Z,50.45
2022-08-17T11:20:05.205Z,49.92
2022-08-17T11:23:17.182Z,49.20
2022-08-17T11:26:26.738Z,49.45
2022-08-17T11:29:31.695Z,49.72
2022-08-17T11:32:47.755Z,49.00
2022-08-17T11:35:55.327Z,49.13
2022-08-17T11:39:02.162Z,48.52
2022-08-17T11:42:06.029Z,49.49
2022-08-17T11:45:32.540Z,49.83
2022-08-17T11:48:56.733Z,49.98
2022-08-17T11:52:13.134Z,49.18
2022-08-17T11:55:40.546Z,49.72
2022-08-17T11:58:45.454Z,49.81
2022-08-17T12:01:56.760Z,48.36
2022-08-17T12:05:17.338Z,47.94
2022-08-17T12:08:20.305Z,48.31
2022-08-17T12:12:01.708Z,47.48
2022-08-17T12:18:20.310Z,47.59
2022-08-17T12:21:38.177Z,47.65
2022-08-17T12:24:47.484Z,48.07
2022-08-17T12:28:05.036Z,48.80
2022-08-17T12:31:15.050Z,48.59
2022-08-17T12:34:19.892Z,48.71
2022-08-17T12:37:24.954Z,49.68
2022-08-17T12:40:27.877Z,49.53
2022-08-17T12:43:32.902Z,49.46
2022-08-17T12:46:44.810Z,48.68
2022-08-17T12:49:48.646Z,49.57
2022-08-17T12:52:51.033Z,49.18
2022-08-17T12:55:58.981Z,48.68
2022-08-17T12:59:02.425Z,47.18
2022-08-17T13:02:04.517Z,47.03
2022-08-17T13:05:09.336Z,46.97
2022-08-17T13:08:15.253Z,47.64
2022-08-17T13:11:19.354Z,47.66
2022-08-17T13:14:21.875Z,47.35
2022-08-17T13:17:32.047Z,47.92
2022-08-17T13:20:35.597Z,47.77
2022-08-17T13:23:37.906Z,47.63
2022-08-17T13:26:42.049Z,47.83
2022-08-17T13:29:53.814Z,47.40
2022-08-17T13:32:56.253Z,48.17
2022-08-17T13:36:06.836Z,48.13
2022-08-17T13:39:13.623Z,48.53
2022-08-17T13:42:34.492Z,48.18
2022-08-17T13:46:06.988Z,48.22
2022-08-17T13:49:11.728Z,47.95
2022-08-17T13:52:30.763Z,47.86
2022-08-17T13:55:33.108Z,48.02
2022-08-17T13:58:37.431Z,48.04
2022-08-17T14:01:40.813Z,48.34
2022-08-17T14:04:43.579Z,48.47
2022-08-17T14:07:46.620Z,48.66
2022-08-17T14:10:50.511Z,48.88
2022-08-17T14:13:52.695Z,48.64
2022-08-17T14:16:54.369Z,49.12
2022-08-17T14:19:56.160Z,49.89
2022-08-17T14:22:59.284Z,51.23
2022-08-17T14:26:01.272Z,52.07
2022-08-17T14:29:03.044Z,53.17
2022-08-17T14:32:06.979Z,53.61
2022-08-17T14:35:12.109Z,55.52
2022-08-17T14:38:15.218Z,57.41
2022-08-17T14:41:22.037Z,58.78
2022-08-17T14:44:23.978Z,60.27
2022-08-17T14:47:26.690Z,61.22
2022-08-17T14:50:28.561Z,62.92
2022-08-17T14:53:31.982Z,62.98
2022-08-17T14:56:37.924Z,62.71
2022-08-17T14:59:40.205Z,63.09
2022-08-17T15:02:46.383Z,62.98
2022-08-17T15:05:54.808Z,61.45
2022-08-17T15:08:58.185Z,61.75
2022-08-17T15:12:01.180Z,61.02
2022-08-17T15:15:04.760Z,60.36
2022-08-17T15:18:08.860Z,60.33
2022-08-17T15:21:10.973Z,60.03
2022-08-17T15:24:16.602Z,59.75
2022-08-17T15:27:18.367Z,59.74
2022-08-17T15:30:35.253Z,60.34
2022-08-17T15:33:38.350Z,60.61
2022-08-17T15:36:49.273Z,60.33
2022-08-17T15:39:53.052Z,60.13
2022-08-17T15:42:54.813Z,59.75
2022-08-17T15:46:00.212Z,59.06
2022-08-17T15:49:05.778Z,59.56
2022-08-17T15:52:14.746Z,58.15
2022-08-17T15:55:24.145Z,57.89
2022-08-17T15:58:29.889Z,58.62
2022-08-17T16:03:01.961Z,57.94
2022-08-17T16:04:57.371Z,57.10
2022-08-17T16:07:59.973Z,56.13
2022-08-17T16:11:03.942Z,55.80
2022-08-17T16:14:05.773Z,55.91
2022-08-17T16:17:38.734Z,56.39
2022-08-17T16:20:31.778Z,57.41
2022-08-17T16:23:33.919Z,59.01
2022-08-17T16:26:37.081Z,58.48
2022-08-17T16:29:39.646Z,58.94
2022-08-17T16:32:41.555Z,59.67
2022-08-17T16:35:43.462Z,59.35
2022-08-17T16:38:45.290Z,58.60
2022-08-17T16:41:48.377Z,57.14
2022-08-17T16:44:53.271Z,57.21
2022-08-17T16:47:55.412Z,57.78
2022-08-17T16:51:02.952Z,57.77
2022-08-17T16:54:07.352Z,57.64
2022-08-17T16:57:11.241Z,58.10
2022-08-17T17:00:15.029Z,58.21
2022-08-17T17:03:19.480Z,58.44
2022-08-17T17:06:28.110Z,57.98
2022-08-17T17:09:34.883Z,57.96
2022-08-17T17:13:02.971Z,57.29
2022-08-17T17:16:16.206Z,57.25
2022-08-17T17:19:27.721Z,57.52
2022-08-17T17:22:41.214Z,57.93
2022-08-17T17:25:50.732Z,57.73
2022-08-17T17:29:03.187Z,58.40
2022-08-17T17:32:14.091Z,58.18
2022-08-17T17:35:23.039Z,58.81
2022-08-17T17:38:28.987Z,57.93
2022-08-17T17:41:34.194Z,58.26
2022-08-17T17:44:39.396Z,57.83
2022-08-17T17:47:43.356Z,58.49
2022-08-17T17:50:50.468Z,58.12
2022-08-17T17:53:57.624Z,58.48
2022-08-17T17:57:03.483Z,59.00
2022-08-17T18:00:12.122Z,58.88
2022-08-17T18:03:24.118Z,59.18
2022-08-17T18:06:29.681Z,59.62
2022-08-17T18:09:42.217Z,60.84
2022-08-17T18:12:58.017Z,60.74
2022-08-17T18:16:01.866Z,61.07
2022-08-17T18:19:03.536Z,61.08
2022-08-17T18:22:14.142Z,61.48
2022-08-17T18:25:31.005Z,61.68
2022-08-17T18:28:35.736Z,61.84
2022-08-17T18:31:38.872Z,62.17
2022-08-17T18:34:49.933Z,62.32
2022-08-17T18:37:53.057Z,62.94
2022-08-17T18:41:03.005Z,63.20
2022-08-17T18:44:05.660Z,63.66
2022-08-17T18:47:15.621Z,63.95
2022-08-17T18:50:22.301Z,63.86
2022-08-17T18:53:33.241Z,63.76
2022-08-17T18:56:36.210Z,63.16
2022-08-17T18:59:42.432Z,63.02
2022-08-17T19:02:53.448Z,63.17
2022-08-17T19:06:18.099Z,62.59
2022-08-17T19:09:29.682Z,63.11
2022-08-17T19:12:35.295Z,63.35
2022-08-17T19:15:39.925Z,63.10
2022-08-17T19:18:45.611Z,63.43
2022-08-17T19:21:52.510Z,63.47
2022-08-17T19:25:02.645Z,63.79
2022-08-17T19:28:15.367Z,64.19
2022-08-17T19:31:26.750Z,64.75
2022-08-17T19:34:33.995Z,64.94
2022-08-17T19:37:38.762Z,65.72
2022-08-17T19:40:53.209Z,65.81
2022-08-17T19:44:00.916Z,66.00
2022-08-17T19:47:10.488Z,66.54
2022-08-17T19:50:16.575Z,67.10
2022-08-17T19:53:33.203Z,67.64
2022-08-17T19:56:51.783Z,67.37
2022-08-17T19:59:57.165Z,67.94
2022-08-17T20:03:05.891Z,68.12
2022-08-17T20:06:17.586Z,68.52
2022-08-17T20:09:21.327Z,68.38
2022-08-17T20:12:24.664Z,68.64
2022-08-17T20:15:29.730Z,69.42
2022-08-17T20:18:37.882Z,69.20
2022-08-17T20:21:52.641Z,68.04
2022-08-17T20:24:58.217Z,67.50
2022-08-17T20:28:06.409Z,67.11
2022-08-17T20:31:27.674Z,66.64
2022-08-17T20:34:37.317Z,66.78
2022-08-17T20:37:44.211Z,67.03
2022-08-17T20:41:01.259Z,67.22
2022-08-17T20:44:04.900Z,67.66
2022-08-17T20:47:08.512Z,67.81
2022-08-17T20:50:13.056Z,68.14
2022-08-17T20:53:36.636Z,68.50
2022-08-17T20:56:49.510Z,68.73
2022-08-17T20:59:59.891Z,69.22
2022-08-17T21:03:17.454Z,69.63
2022-08-17T21:06:20.374Z,70.00
2022-08-17T21:09:29.627Z,70.41
2022-08-17T21:12:48.132Z,70.61
2022-08-17T21:15:52.438Z,70.80
2022-08-17T21:19:00.789Z,71.35
2022-08-17T21:22:13.022Z,71.55
2022-08-17T21:25:27.059Z,71.99
2022-08-17T21:28:34.218Z,71.98
2022-08-17T21:31:38.434Z,72.27
2022-08-17T21:34:42.553Z,72.36
2022-08-17T21:37:45.083Z,72.65
2022-08-17T21:40:53.039Z,73.12
2022-08-17T21:43:58.199Z,73.27
2022-08-17T21:47:13.513Z,73.19
2022-08-17T21:50:20.719Z,73.58
2022-08-17T21:53:25.392Z,73.93
2022-08-17T21:56:31.802Z,73.78
2022-08-17T21:59:35.683Z,74.07
2022-08-17T22:02:41.834Z,74.24
2022-08-17T22:05:43.583Z,74.64
2022-08-17T22:08:56.787Z,75.13
2022-08-17T22:12:06.249Z,75.68
2022-08-17T22:15:09.913Z,76.33
2022-08-17T22:18:21.820Z,76.77
2022-08-17T22:21:25.095Z,77.16
2022-08-17T22:24:27.113Z,77.32
2022-08-17T22:27:47.008Z,78.25
2022-08-17T22:31:00.185Z,78.64
2022-08-17T22:34:09.469Z,78.74
2022-08-17T22:37:28.465Z,79.07
2022-08-17T22:40:31.183Z,79.19
2022-08-17T22:43:37.632Z,79.39
2022-08-17T22:46:40.640Z,79.19
2022-08-17T22:49:53.278Z,79.77
2022-08-17T22:53:24.031Z,79.72
2022-08-17T22:56:44.253Z,80.60
2022-08-17T22:59:51.891Z,80.83
2022-08-17T23:03:05.821Z,81.34
2022-08-17T23:06:09.068Z,81.81
2022-08-17T23:09:10.728Z,82.51
2022-08-17T23:12:14.980Z,83.14
2022-08-17T23:15:19.242Z,83.70
2022-08-17T23:18:20.941Z,84.14
2022-08-17T23:21:25.693Z,84.27
2022-08-17T23:24:30.403Z,84.50
2022-08-17T23:27:32.321Z,85.06
2022-08-17T23:30:37.018Z,84.93
2022-08-17T23:33:39.861Z,85.47
2022-08-17T23:36:41.491Z,85.57
2022-08-17T23:39:45.142Z,85.82
2022-08-17T23:42:47.371Z,85.96
2022-08-17T23:45:50.581Z,86.13
2022-08-17T23:48:54.344Z,86.51
2022-08-17T23:51:56.042Z,86.82
2022-08-17T23:54:57.677Z,87.08
2022-08-17T23:57:59.619Z,87.41
